sensor_id;sensor_type;location;lat;lon;timestamp;pressure;altitude;pressure_sealevel;temperature;humidity
77086;BME280;66014;53.134;18.006;2023-02-28T00:01:28;102679.55;;;-1.89;67.37
77086;BME280;66014;53.134;18.006;2023-02-28T00:03:54;102679.28;;;-1.92;67.34
77086;BME280;66014;53.134;18.006;2023-02-28T00:06:21;102681.98;;;-1.94;67.45
77086;BME280;66014;53.134;18.006;2023-02-28T00:08:48;102681.75;;;-1.98;67.40
77086;BME280;66014;53.134;18.006;2023-02-28T00:11:16;102680.61;;;-2.01;67.43
77086;BME280;66014;53.134;18.006;2023-02-28T00:13:45;102680.34;;;-2.03;67.78
77086;BME280;66014;53.134;18.006;2023-02-28T00:16:20;102677.27;;;-2.05;67.71
77086;BME280;66014;53.134;18.006;2023-02-28T00:18:48;102677.35;;;-2.07;67.63
77086;BME280;66014;53.134;18.006;2023-02-28T00:21:16;102678.05;;;-2.07;67.70
77086;BME280;66014;53.134;18.006;2023-02-28T00:23:43;102676.63;;;-2.06;67.89
77086;BME280;66014;53.134;18.006;2023-02-28T00:26:10;102679.01;;;-2.05;68.01
77086;BME280;66014;53.134;18.006;2023-02-28T00:28:36;102680.00;;;-2.03;68.07
77086;BME280;66014;53.134;18.006;2023-02-28T00:31:03;102683.17;;;-2.05;67.84
77086;BME280;66014;53.134;18.006;2023-02-28T00:33:30;102682.05;;;-2.08;67.85
77086;BME280;66014;53.134;18.006;2023-02-28T00:36:07;102680.71;;;-2.09;67.93
77086;BME280;66014;53.134;18.006;2023-02-28T00:38:34;102677.15;;;-2.12;67.74
77086;BME280;66014;53.134;18.006;2023-02-28T00:41:01;102677.95;;;-2.15;68.00
77086;BME280;66014;53.134;18.006;2023-02-28T00:43:32;102675.91;;;-2.17;67.91
77086;BME280;66014;53.134;18.006;2023-02-28T00:46:00;102674.75;;;-2.19;67.97
77086;BME280;66014;53.134;18.006;2023-02-28T00:48:26;102681.39;;;-2.20;67.87
77086;BME280;66014;53.134;18.006;2023-02-28T00:50:53;102682.47;;;-2.21;67.91
77086;BME280;66014;53.134;18.006;2023-02-28T00:53:20;102682.96;;;-2.25;67.98
77086;BME280;66014;53.134;18.006;2023-02-28T00:55:49;102677.13;;;-2.28;68.15
77086;BME280;66014;53.134;18.006;2023-02-28T00:58:18;102684.43;;;-2.28;68.24
77086;BME280;66014;53.134;18.006;2023-02-28T01:00:46;102684.44;;;-2.28;68.27
77086;BME280;66014;53.134;18.006;2023-02-28T01:03:17;102685.67;;;-2.29;68.25
77086;BME280;66014;53.134;18.006;2023-02-28T01:05:44;102688.33;;;-2.31;68.44
77086;BME280;66014;53.134;18.006;2023-02-28T01:08:12;102687.88;;;-2.33;68.34
77086;BME280;66014;53.134;18.006;2023-02-28T01:10:41;102689.19;;;-2.35;68.27
77086;BME280;66014;53.134;18.006;2023-02-28T01:13:08;102691.55;;;-2.39;68.23
77086;BME280;66014;53.134;18.006;2023-02-28T01:15:34;102692.73;;;-2.43;68.34
77086;BME280;66014;53.134;18.006;2023-02-28T01:18:01;102692.30;;;-2.46;68.33
77086;BME280;66014;53.134;18.006;2023-02-28T01:20:27;102690.64;;;-2.49;68.46
77086;BME280;66014;53.134;18.006;2023-02-28T01:22:54;102692.44;;;-2.51;68.45
77086;BME280;66014;53.134;18.006;2023-02-28T01:25:20;102691.21;;;-2.50;68.66
77086;BME280;66014;53.134;18.006;2023-02-28T01:27:47;102689.98;;;-2.50;68.80
77086;BME280;66014;53.134;18.006;2023-02-28T01:30:14;102684.46;;;-2.52;68.82
77086;BME280;66014;53.134;18.006;2023-02-28T01:32:40;102683.94;;;-2.51;68.71
77086;BME280;66014;53.134;18.006;2023-02-28T01:35:08;102680.27;;;-2.51;68.84
77086;BME280;66014;53.134;18.006;2023-02-28T01:37:35;102681.16;;;-2.52;68.67
77086;BME280;66014;53.134;18.006;2023-02-28T01:40:02;102677.40;;;-2.54;68.68
77086;BME280;66014;53.134;18.006;2023-02-28T01:42:30;102676.76;;;-2.55;68.73
77086;BME280;66014;53.134;18.006;2023-02-28T01:47:38;102677.70;;;-2.58;68.73
77086;BME280;66014;53.134;18.006;2023-02-28T01:50:10;102675.05;;;-2.56;68.88
77086;BME280;66014;53.134;18.006;2023-02-28T01:52:38;102673.48;;;-2.56;68.57
77086;BME280;66014;53.134;18.006;2023-02-28T01:55:06;102673.14;;;-2.57;68.67
77086;BME280;66014;53.134;18.006;2023-02-28T01:57:41;102668.91;;;-2.61;68.78
77086;BME280;66014;53.134;18.006;2023-02-28T02:00:12;102669.05;;;-2.66;68.84
77086;BME280;66014;53.134;18.006;2023-02-28T02:02:46;102667.54;;;-2.67;69.01
77086;BME280;66014;53.134;18.006;2023-02-28T02:05:21;102669.66;;;-2.69;69.22
77086;BME280;66014;53.134;18.006;2023-02-28T02:07:51;102674.52;;;-2.68;69.22
77086;BME280;66014;53.134;18.006;2023-02-28T02:10:21;102672.45;;;-2.68;69.17
77086;BME280;66014;53.134;18.006;2023-02-28T02:13:05;102675.05;;;-2.68;68.95
77086;BME280;66014;53.134;18.006;2023-02-28T02:18:14;102670.83;;;-2.67;68.81
77086;BME280;66014;53.134;18.006;2023-02-28T02:20:54;102670.87;;;-2.68;68.91
77086;BME280;66014;53.134;18.006;2023-02-28T02:35:51;102680.55;;;-2.78;69.42
77086;BME280;66014;53.134;18.006;2023-02-28T02:43:55;102684.98;;;-2.81;69.56
77086;BME280;66014;53.134;18.006;2023-02-28T02:46:28;102686.69;;;-2.80;69.68
77086;BME280;66014;53.134;18.006;2023-02-28T02:49:00;102685.30;;;-2.80;69.66
77086;BME280;66014;53.134;18.006;2023-02-28T02:51:27;102684.46;;;-2.81;69.49
77086;BME280;66014;53.134;18.006;2023-02-28T02:54:02;102681.20;;;-2.83;69.29
77086;BME280;66014;53.134;18.006;2023-02-28T02:56:33;102687.14;;;-2.84;69.63
77086;BME280;66014;53.134;18.006;2023-02-28T02:59:04;102683.59;;;-2.87;69.54
77086;BME280;66014;53.134;18.006;2023-02-28T03:01:34;102684.16;;;-2.89;69.65
77086;BME280;66014;53.134;18.006;2023-02-28T03:04:06;102682.64;;;-2.90;69.64
77086;BME280;66014;53.134;18.006;2023-02-28T03:06:33;102681.09;;;-2.91;69.79
77086;BME280;66014;53.134;18.006;2023-02-28T03:09:02;102685.95;;;-2.91;69.81
77086;BME280;66014;53.134;18.006;2023-02-28T03:11:36;102681.77;;;-2.90;69.76
77086;BME280;66014;53.134;18.006;2023-02-28T03:22:41;102686.45;;;-2.90;69.88
77086;BME280;66014;53.134;18.006;2023-02-28T03:30:52;102691.23;;;-2.94;69.98
77086;BME280;66014;53.134;18.006;2023-02-28T03:33:44;102689.71;;;-2.94;69.93
77086;BME280;66014;53.134;18.006;2023-02-28T03:36:20;102690.39;;;-2.94;69.85
77086;BME280;66014;53.134;18.006;2023-02-28T03:38:54;102691.39;;;-2.93;69.90
77086;BME280;66014;53.134;18.006;2023-02-28T03:41:27;102692.62;;;-2.93;69.65
77086;BME280;66014;53.134;18.006;2023-02-28T03:44:03;102694.53;;;-2.93;69.48
77086;BME280;66014;53.134;18.006;2023-02-28T03:46:36;102702.04;;;-2.94;69.57
77086;BME280;66014;53.134;18.006;2023-02-28T03:49:18;102701.40;;;-2.97;69.66
77086;BME280;66014;53.134;18.006;2023-02-28T03:52:02;102704.08;;;-2.99;69.60
77086;BME280;66014;53.134;18.006;2023-02-28T03:54:38;102701.27;;;-3.04;69.34
77086;BME280;66014;53.134;18.006;2023-02-28T03:59:47;102700.98;;;-3.13;69.36
77086;BME280;66014;53.134;18.006;2023-02-28T04:02:16;102703.52;;;-3.17;69.53
77086;BME280;66014;53.134;18.006;2023-02-28T04:04:42;102708.70;;;-3.23;69.64
77086;BME280;66014;53.134;18.006;2023-02-28T04:07:11;102707.98;;;-3.27;69.42
77086;BME280;66014;53.134;18.006;2023-02-28T04:09:51;102708.45;;;-3.32;69.40
77086;BME280;66014;53.134;18.006;2023-02-28T04:12:20;102709.60;;;-3.36;69.45
77086;BME280;66014;53.134;18.006;2023-02-28T04:14:50;102711.90;;;-3.38;69.49
77086;BME280;66014;53.134;18.006;2023-02-28T04:17:20;102710.57;;;-3.40;69.38
77086;BME280;66014;53.134;18.006;2023-02-28T04:19:47;102709.94;;;-3.43;69.50
77086;BME280;66014;53.134;18.006;2023-02-28T04:22:13;102710.04;;;-3.47;69.48
77086;BME280;66014;53.134;18.006;2023-02-28T04:24:40;102707.84;;;-3.49;69.61
77086;BME280;66014;53.134;18.006;2023-02-28T04:27:08;102706.65;;;-3.50;69.90
77086;BME280;66014;53.134;18.006;2023-02-28T04:29:35;102708.20;;;-3.50;70.24
77086;BME280;66014;53.134;18.006;2023-02-28T04:32:09;102708.75;;;-3.50;70.06
77086;BME280;66014;53.134;18.006;2023-02-28T04:34:56;102712.48;;;-3.48;70.24
77086;BME280;66014;53.134;18.006;2023-02-28T04:37:24;102712.27;;;-3.46;70.27
77086;BME280;66014;53.134;18.006;2023-02-28T04:40:01;102711.71;;;-3.45;70.24
77086;BME280;66014;53.134;18.006;2023-02-28T04:42:50;102717.75;;;-3.43;70.33
77086;BME280;66014;53.134;18.006;2023-02-28T04:45:20;102716.80;;;-3.40;70.52
77086;BME280;66014;53.134;18.006;2023-02-28T04:48:14;102720.38;;;-3.38;70.37
77086;BME280;66014;53.134;18.006;2023-02-28T04:50:49;102725.73;;;-3.36;70.15
77086;BME280;66014;53.134;18.006;2023-02-28T04:53:48;102723.27;;;-3.36;70.06
77086;BME280;66014;53.134;18.006;2023-02-28T04:56:17;102723.67;;;-3.37;70.10
77086;BME280;66014;53.134;18.006;2023-02-28T04:58:44;102720.22;;;-3.38;70.09
77086;BME280;66014;53.134;18.006;2023-02-28T05:01:37;102719.55;;;-3.39;70.19
77086;BME280;66014;53.134;18.006;2023-02-28T05:04:04;102718.31;;;-3.37;70.39
77086;BME280;66014;53.134;18.006;2023-02-28T05:06:32;102724.49;;;-3.35;70.27
77086;BME280;66014;53.134;18.006;2023-02-28T05:09:00;102722.20;;;-3.33;70.03
77086;BME280;66014;53.134;18.006;2023-02-28T05:11:29;102726.31;;;-3.32;70.22
77086;BME280;66014;53.134;18.006;2023-02-28T05:14:06;102729.96;;;-3.32;69.89
77086;BME280;66014;53.134;18.006;2023-02-28T05:16:33;102731.00;;;-3.32;69.96
77086;BME280;66014;53.134;18.006;2023-02-28T05:19:00;102726.52;;;-3.33;69.96
77086;BME280;66014;53.134;18.006;2023-02-28T05:21:49;102726.36;;;-3.34;70.15
77086;BME280;66014;53.134;18.006;2023-02-28T05:24:16;102724.23;;;-3.38;69.97
77086;BME280;66014;53.134;18.006;2023-02-28T05:26:51;102723.43;;;-3.41;70.05
77086;BME280;66014;53.134;18.006;2023-02-28T05:29:23;102723.42;;;-3.41;70.28
77086;BME280;66014;53.134;18.006;2023-02-28T05:31:50;102724.48;;;-3.41;70.24
77086;BME280;66014;53.134;18.006;2023-02-28T05:34:17;102722.20;;;-3.41;70.38
77086;BME280;66014;53.134;18.006;2023-02-28T05:36:43;102724.77;;;-3.39;70.32
77086;BME280;66014;53.134;18.006;2023-02-28T05:39:10;102722.97;;;-3.37;70.58
77086;BME280;66014;53.134;18.006;2023-02-28T05:41:42;102728.81;;;-3.34;70.39
77086;BME280;66014;53.134;18.006;2023-02-28T05:44:09;102727.17;;;-3.32;70.28
77086;BME280;66014;53.134;18.006;2023-02-28T05:46:36;102730.59;;;-3.30;70.17
77086;BME280;66014;53.134;18.006;2023-02-28T05:49:03;102734.72;;;-3.28;70.16
77086;BME280;66014;53.134;18.006;2023-02-28T05:51:30;102737.59;;;-3.25;70.23
77086;BME280;66014;53.134;18.006;2023-02-28T05:54:00;102737.56;;;-3.24;70.19
77086;BME280;66014;53.134;18.006;2023-02-28T05:56:28;102738.80;;;-3.25;69.93
77086;BME280;66014;53.134;18.006;2023-02-28T05:58:54;102733.05;;;-3.25;69.97
77086;BME280;66014;53.134;18.006;2023-02-28T06:01:37;102734.46;;;-3.25;69.88
77086;BME280;66014;53.134;18.006;2023-02-28T06:04:08;102736.88;;;-3.24;69.97
77086;BME280;66014;53.134;18.006;2023-02-28T06:06:35;102739.23;;;-3.21;69.86
77086;BME280;66014;53.134;18.006;2023-02-28T06:09:04;102741.77;;;-3.19;70.08
77086;BME280;66014;53.134;18.006;2023-02-28T06:11:32;102744.77;;;-3.14;70.05
77086;BME280;66014;53.134;18.006;2023-02-28T06:14:00;102744.51;;;-3.10;70.08
77086;BME280;66014;53.134;18.006;2023-02-28T06:16:28;102745.74;;;-3.05;70.00
77086;BME280;66014;53.134;18.006;2023-02-28T06:18:57;102747.13;;;-2.99;70.11
77086;BME280;66014;53.134;18.006;2023-02-28T06:21:25;102751.04;;;-2.95;69.99
77086;BME280;66014;53.134;18.006;2023-02-28T06:23:55;102749.00;;;-2.91;70.11
77086;BME280;66014;53.134;18.006;2023-02-28T06:26:23;102748.38;;;-2.87;70.09
77086;BME280;66014;53.134;18.006;2023-02-28T06:28:50;102750.52;;;-2.83;70.32
77086;BME280;66014;53.134;18.006;2023-02-28T06:31:18;102752.60;;;-2.76;70.28
77086;BME280;66014;53.134;18.006;2023-02-28T06:33:48;102753.34;;;-2.66;70.05
77086;BME280;66014;53.134;18.006;2023-02-28T06:36:16;102753.71;;;-2.48;69.86
77086;BME280;66014;53.134;18.006;2023-02-28T06:38:43;102759.07;;;-2.24;69.56
77086;BME280;66014;53.134;18.006;2023-02-28T06:41:11;102758.50;;;-1.89;69.21
77086;BME280;66014;53.134;18.006;2023-02-28T06:43:40;102759.17;;;-1.50;68.49
77086;BME280;66014;53.134;18.006;2023-02-28T06:46:13;102762.31;;;-1.09;67.73
77086;BME280;66014;53.134;18.006;2023-02-28T06:48:45;102758.67;;;-0.70;67.08
77086;BME280;66014;53.134;18.006;2023-02-28T06:51:20;102759.23;;;-0.34;66.47
77086;BME280;66014;53.134;18.006;2023-02-28T06:53:55;102760.74;;;0.04;65.87
77086;BME280;66014;53.134;18.006;2023-02-28T06:56:22;102767.41;;;0.38;65.11
77086;BME280;66014;53.134;18.006;2023-02-28T06:58:50;102772.84;;;0.72;64.48
77086;BME280;66014;53.134;18.006;2023-02-28T07:01:20;102775.24;;;1.06;64.10
77086;BME280;66014;53.134;18.006;2023-02-28T07:03:51;102775.23;;;1.42;63.56
77086;BME280;66014;53.134;18.006;2023-02-28T07:06:20;102781.58;;;1.75;63.09
77086;BME280;66014;53.134;18.006;2023-02-28T07:08:54;102784.90;;;2.09;62.75
77086;BME280;66014;53.134;18.006;2023-02-28T07:11:27;102780.94;;;2.40;62.13
77086;BME280;66014;53.134;18.006;2023-02-28T07:14:11;102780.42;;;2.75;61.81
77086;BME280;66014;53.134;18.006;2023-02-28T07:16:38;102777.54;;;3.04;61.08
77086;BME280;66014;53.134;18.006;2023-02-28T07:19:05;102774.08;;;3.33;60.67
77086;BME280;66014;53.134;18.006;2023-02-28T07:21:31;102775.79;;;3.64;60.09
77086;BME280;66014;53.134;18.006;2023-02-28T07:23:58;102778.30;;;3.95;59.62
77086;BME280;66014;53.134;18.006;2023-02-28T07:26:24;102774.46;;;4.28;59.27
77086;BME280;66014;53.134;18.006;2023-02-28T07:28:51;102772.48;;;4.63;58.95
77086;BME280;66014;53.134;18.006;2023-02-28T07:31:17;102770.38;;;4.93;58.46
77086;BME280;66014;53.134;18.006;2023-02-28T07:33:45;102767.91;;;5.19;58.04
77086;BME280;66014;53.134;18.006;2023-02-28T07:36:14;102765.67;;;5.52;57.82
77086;BME280;66014;53.134;18.006;2023-02-28T07:38:47;102769.70;;;5.95;57.33
77086;BME280;66014;53.134;18.006;2023-02-28T07:41:17;102769.38;;;6.33;56.73
77086;BME280;66014;53.134;18.006;2023-02-28T07:43:45;102766.55;;;6.70;56.21
77086;BME280;66014;53.134;18.006;2023-02-28T07:46:14;102758.25;;;7.04;55.67
77086;BME280;66014;53.134;18.006;2023-02-28T07:48:42;102761.44;;;7.36;55.26
77086;BME280;66014;53.134;18.006;2023-02-28T07:51:09;102757.73;;;7.66;54.73
77086;BME280;66014;53.134;18.006;2023-02-28T07:53:36;102754.98;;;7.85;54.15
77086;BME280;66014;53.134;18.006;2023-02-28T07:56:03;102762.23;;;8.12;53.94
77086;BME280;66014;53.134;18.006;2023-02-28T07:58:30;102764.40;;;8.43;53.21
77086;BME280;66014;53.134;18.006;2023-02-28T08:01:05;102764.23;;;8.68;52.61
77086;BME280;66014;53.134;18.006;2023-02-28T08:03:33;102766.08;;;8.88;52.28
77086;BME280;66014;53.134;18.006;2023-02-28T08:06:03;102766.80;;;9.09;51.99
77086;BME280;66014;53.134;18.006;2023-02-28T08:08:31;102768.61;;;9.33;51.70
77086;BME280;66014;53.134;18.006;2023-02-28T08:11:02;102771.42;;;9.63;51.30
77086;BME280;66014;53.134;18.006;2023-02-28T08:13:30;102775.12;;;9.87;50.91
77086;BME280;66014;53.134;18.006;2023-02-28T08:15:57;102774.71;;;10.10;50.56
77086;BME280;66014;53.134;18.006;2023-02-28T08:18:24;102776.14;;;10.29;50.19
77086;BME280;66014;53.134;18.006;2023-02-28T08:20:50;102775.70;;;10.46;49.81
77086;BME280;66014;53.134;18.006;2023-02-28T08:23:17;102771.66;;;10.60;49.28
77086;BME280;66014;53.134;18.006;2023-02-28T08:25:53;102766.92;;;10.72;48.92
77086;BME280;66014;53.134;18.006;2023-02-28T08:28:20;102762.82;;;10.80;48.32
77086;BME280;66014;53.134;18.006;2023-02-28T08:30:46;102764.22;;;10.87;48.22
77086;BME280;66014;53.134;18.006;2023-02-28T08:33:12;102760.42;;;11.00;48.12
77086;BME280;66014;53.134;18.006;2023-02-28T08:35:39;102754.25;;;11.20;47.60
77086;BME280;66014;53.134;18.006;2023-02-28T08:38:05;102752.41;;;11.33;47.30
77086;BME280;66014;53.134;18.006;2023-02-28T08:40:34;102755.48;;;11.51;47.11
77086;BME280;66014;53.134;18.006;2023-02-28T08:43:01;102756.23;;;11.73;46.69
77086;BME280;66014;53.134;18.006;2023-02-28T08:45:27;102751.83;;;11.88;45.97
77086;BME280;66014;53.134;18.006;2023-02-28T08:47:54;102748.86;;;12.03;45.68
77086;BME280;66014;53.134;18.006;2023-02-28T08:50:22;102743.95;;;12.22;45.16
77086;BME280;66014;53.134;18.006;2023-02-28T08:52:52;102740.27;;;12.35;44.81
77086;BME280;66014;53.134;18.006;2023-02-28T08:55:18;102738.51;;;12.45;44.48
77086;BME280;66014;53.134;18.006;2023-02-28T08:57:46;102736.74;;;12.52;44.18
77086;BME280;66014;53.134;18.006;2023-02-28T09:00:12;102734.63;;;12.59;43.61
77086;BME280;66014;53.134;18.006;2023-02-28T09:02:41;102736.30;;;12.67;43.46
77086;BME280;66014;53.134;18.006;2023-02-28T09:05:11;102737.60;;;12.79;42.97
77086;BME280;66014;53.134;18.006;2023-02-28T09:07:38;102738.50;;;12.85;42.46
77086;BME280;66014;53.134;18.006;2023-02-28T09:10:08;102742.97;;;12.87;42.58
77086;BME280;66014;53.134;18.006;2023-02-28T09:12:35;102743.48;;;12.91;42.16
77086;BME280;66014;53.134;18.006;2023-02-28T09:15:05;102747.91;;;12.97;42.10
77086;BME280;66014;53.134;18.006;2023-02-28T09:17:32;102747.23;;;13.06;41.55
77086;BME280;66014;53.134;18.006;2023-02-28T09:19:58;102745.25;;;13.14;41.24
77086;BME280;66014;53.134;18.006;2023-02-28T09:22:25;102739.88;;;13.22;41.13
77086;BME280;66014;53.134;18.006;2023-02-28T09:24:51;102743.51;;;13.34;40.92
77086;BME280;66014;53.134;18.006;2023-02-28T09:27:18;102738.95;;;13.40;40.17
77086;BME280;66014;53.134;18.006;2023-02-28T09:29:45;102738.94;;;13.37;39.89
77086;BME280;66014;53.134;18.006;2023-02-28T09:32:11;102739.09;;;13.39;39.86
77086;BME280;66014;53.134;18.006;2023-02-28T09:34:38;102737.73;;;13.36;39.44
77086;BME280;66014;53.134;18.006;2023-02-28T09:37:05;102737.70;;;13.22;38.74
77086;BME280;66014;53.134;18.006;2023-02-28T09:39:32;102738.34;;;13.06;39.01
77086;BME280;66014;53.134;18.006;2023-02-28T09:41:59;102743.55;;;13.09;38.72
77086;BME280;66014;53.134;18.006;2023-02-28T09:44:38;102745.10;;;13.04;38.32
77086;BME280;66014;53.134;18.006;2023-02-28T09:47:13;102744.06;;;12.84;38.22
77086;BME280;66014;53.134;18.006;2023-02-28T09:49:46;102740.69;;;12.69;38.63
77086;BME280;66014;53.134;18.006;2023-02-28T09:52:17;102744.04;;;12.71;38.62
77086;BME280;66014;53.134;18.006;2023-02-28T09:54:45;102745.52;;;12.67;38.63
77086;BME280;66014;53.134;18.006;2023-02-28T09:57:37;102743.81;;;12.70;38.42
77086;BME280;66014;53.134;18.006;2023-02-28T10:00:22;102740.19;;;12.67;38.03
77086;BME280;66014;53.134;18.006;2023-02-28T10:03:04;102736.38;;;12.58;37.36
77086;BME280;66014;53.134;18.006;2023-02-28T10:05:37;102731.52;;;12.08;37.61
77086;BME280;66014;53.134;18.006;2023-02-28T10:08:58;102733.83;;;11.79;37.60
77086;BME280;66014;53.134;18.006;2023-02-28T10:10:59;102736.50;;;11.59;37.44
77086;BME280;66014;53.134;18.006;2023-02-28T10:13:35;102731.69;;;11.42;37.98
77086;BME280;66014;53.134;18.006;2023-02-28T10:16:11;102734.11;;;11.49;38.10
77086;BME280;66014;53.134;18.006;2023-02-28T10:18:48;102734.27;;;11.50;37.80
77086;BME280;66014;53.134;18.006;2023-02-28T10:21:55;102735.00;;;11.37;38.18
77086;BME280;66014;53.134;18.006;2023-02-28T10:24:34;102734.46;;;11.51;37.99
77086;BME280;66014;53.134;18.006;2023-02-28T10:27:25;102731.13;;;11.69;37.64
77086;BME280;66014;53.134;18.006;2023-02-28T10:30:05;102725.95;;;11.79;37.62
77086;BME280;66014;53.134;18.006;2023-02-28T10:32:35;102723.81;;;11.87;37.70
77086;BME280;66014;53.134;18.006;2023-02-28T10:35:18;102713.35;;;12.01;37.22
77086;BME280;66014;53.134;18.006;2023-02-28T10:37:48;102713.20;;;11.69;36.62
77086;BME280;66014;53.134;18.006;2023-02-28T10:43:04;102706.42;;;11.39;37.57
77086;BME280;66014;53.134;18.006;2023-02-28T10:45:33;102702.83;;;11.59;37.21
77086;BME280;66014;53.134;18.006;2023-02-28T11:01:42;102694.95;;;11.66;36.89
77086;BME280;66014;53.134;18.006;2023-02-28T11:04:35;102693.11;;;11.83;36.07
77086;BME280;66014;53.134;18.006;2023-02-28T11:07:11;102686.66;;;11.91;36.35
77086;BME280;66014;53.134;18.006;2023-02-28T11:09:46;102683.75;;;12.09;35.21
77086;BME280;66014;53.134;18.006;2023-02-28T11:12:38;102686.65;;;12.10;35.61
77086;BME280;66014;53.134;18.006;2023-02-28T11:15:25;102685.13;;;12.31;35.74
77086;BME280;66014;53.134;18.006;2023-02-28T11:20:30;102681.09;;;13.10;35.06
77086;BME280;66014;53.134;18.006;2023-02-28T11:22:59;102680.73;;;13.50;34.58
77086;BME280;66014;53.134;18.006;2023-02-28T11:25:31;102679.34;;;13.88;34.21
77086;BME280;66014;53.134;18.006;2023-02-28T11:28:03;102675.23;;;14.22;33.92
77086;BME280;66014;53.134;18.006;2023-02-28T11:30:36;102677.33;;;14.49;33.42
77086;BME280;66014;53.134;18.006;2023-02-28T11:35:51;102674.38;;;14.50;32.88
77086;BME280;66014;53.134;18.006;2023-02-28T11:38:18;102671.13;;;14.52;33.19
77086;BME280;66014;53.134;18.006;2023-02-28T11:43:42;102661.59;;;14.71;33.06
77086;BME280;66014;53.134;18.006;2023-02-28T11:46:52;102659.19;;;14.88;32.86
77086;BME280;66014;53.134;18.006;2023-02-28T11:49:31;102653.31;;;14.82;32.69
77086;BME280;66014;53.134;18.006;2023-02-28T12:00:29;102651.73;;;15.04;32.41
77086;BME280;66014;53.134;18.006;2023-02-28T12:03:16;102650.98;;;15.30;32.22
77086;BME280;66014;53.134;18.006;2023-02-28T12:06:13;102642.41;;;15.52;31.57
77086;BME280;66014;53.134;18.006;2023-02-28T12:08:58;102636.27;;;15.60;31.43
77086;BME280;66014;53.134;18.006;2023-02-28T12:14:31;102637.95;;;15.93;31.30
77086;BME280;66014;53.134;18.006;2023-02-28T12:27:40;102637.11;;;15.53;30.16
77086;BME280;66014;53.134;18.006;2023-02-28T12:30:28;102637.52;;;15.36;30.87
77086;BME280;66014;53.134;18.006;2023-02-28T12:33:03;102638.45;;;15.60;30.49
77086;BME280;66014;53.134;18.006;2023-02-28T12:35:37;102632.65;;;15.63;30.30
77086;BME280;66014;53.134;18.006;2023-02-28T12:38:10;102636.91;;;15.71;30.16
77086;BME280;66014;53.134;18.006;2023-02-28T12:41:00;102633.58;;;15.69;29.64
77086;BME280;66014;53.134;18.006;2023-02-28T12:43:33;102630.20;;;15.54;30.02
77086;BME280;66014;53.134;18.006;2023-02-28T12:46:14;102627.38;;;15.52;29.73
77086;BME280;66014;53.134;18.006;2023-02-28T12:48:52;102619.48;;;15.26;29.71
77086;BME280;66014;53.134;18.006;2023-02-28T12:51:22;102618.41;;;14.95;30.03
77086;BME280;66014;53.134;18.006;2023-02-28T12:54:03;102614.00;;;14.77;29.81
77086;BME280;66014;53.134;18.006;2023-02-28T12:56:53;102609.89;;;14.34;30.31
77086;BME280;66014;53.134;18.006;2023-02-28T13:02:16;102603.67;;;13.23;31.06
77086;BME280;66014;53.134;18.006;2023-02-28T13:08:27;102597.02;;;12.81;31.61
77086;BME280;66014;53.134;18.006;2023-02-28T13:10:44;102596.66;;;12.57;32.00
77086;BME280;66014;53.134;18.006;2023-02-28T13:13:17;102593.39;;;12.52;32.23
77086;BME280;66014;53.134;18.006;2023-02-28T13:16:04;102589.59;;;12.43;32.33
77086;BME280;66014;53.134;18.006;2023-02-28T13:18:36;102585.09;;;12.33;32.20
77086;BME280;66014;53.134;18.006;2023-02-28T13:21:05;102592.73;;;12.14;31.99
77086;BME280;66014;53.134;18.006;2023-02-28T13:26:04;102588.08;;;11.76;32.22
77086;BME280;66014;53.134;18.006;2023-02-28T13:31:26;102589.38;;;11.69;32.63
77086;BME280;66014;53.134;18.006;2023-02-28T13:36:30;102582.48;;;11.76;32.72
77086;BME280;66014;53.134;18.006;2023-02-28T13:39:03;102577.04;;;11.81;32.06
77086;BME280;66014;53.134;18.006;2023-02-28T13:41:41;102574.74;;;11.85;32.21
77086;BME280;66014;53.134;18.006;2023-02-28T13:44:19;102572.96;;;11.91;32.01
77086;BME280;66014;53.134;18.006;2023-02-28T13:49:28;102571.02;;;11.89;32.29
77086;BME280;66014;53.134;18.006;2023-02-28T14:06:13;102545.02;;;10.97;32.66
77086;BME280;66014;53.134;18.006;2023-02-28T14:11:36;102545.35;;;11.03;33.03
77086;BME280;66014;53.134;18.006;2023-02-28T14:14:05;102543.36;;;11.04;32.95
77086;BME280;66014;53.134;18.006;2023-02-28T14:16:45;102541.48;;;11.01;32.88
77086;BME280;66014;53.134;18.006;2023-02-28T14:19:25;102541.19;;;10.94;32.92
77086;BME280;66014;53.134;18.006;2023-02-28T14:27:38;102540.31;;;10.74;33.53
77086;BME280;66014;53.134;18.006;2023-02-28T14:30:29;102536.98;;;10.66;33.72
77086;BME280;66014;53.134;18.006;2023-02-28T14:33:43;102534.83;;;10.66;33.65
77086;BME280;66014;53.134;18.006;2023-02-28T14:36:25;102527.13;;;10.63;33.70
77086;BME280;66014;53.134;18.006;2023-02-28T14:38:56;102522.71;;;10.54;33.54
77086;BME280;66014;53.134;18.006;2023-02-28T14:41:33;102526.38;;;10.35;33.62
77086;BME280;66014;53.134;18.006;2023-02-28T14:46:41;102518.83;;;10.01;33.90
77086;BME280;66014;53.134;18.006;2023-02-28T14:51:44;102518.84;;;9.86;34.01
77086;BME280;66014;53.134;18.006;2023-02-28T14:54:15;102520.79;;;9.79;33.78
77086;BME280;66014;53.134;18.006;2023-02-28T14:56:43;102519.36;;;9.76;34.25
77086;BME280;66014;53.134;18.006;2023-02-28T14:59:34;102521.41;;;9.76;34.57
77086;BME280;66014;53.134;18.006;2023-02-28T15:02:22;102524.02;;;9.77;34.70
77086;BME280;66014;53.134;18.006;2023-02-28T15:04:55;102531.63;;;9.71;34.44
77086;BME280;66014;53.134;18.006;2023-02-28T15:07:22;102528.47;;;9.60;34.37
77086;BME280;66014;53.134;18.006;2023-02-28T15:10:13;102530.63;;;9.49;34.53
77086;BME280;66014;53.134;18.006;2023-02-28T15:12:48;102531.21;;;9.35;34.78
77086;BME280;66014;53.134;18.006;2023-02-28T15:15:16;102525.77;;;9.24;34.61
77086;BME280;66014;53.134;18.006;2023-02-28T15:17:45;102530.30;;;9.14;34.67